sensor_id;sensor_type;location;lat;lon;timestamp;temperature;humidity
20858;DHT22;10589;53.636;10.012;2023-01-23T04:46:46;2.20;99.90
20858;DHT22;10589;53.636;10.012;2023-01-23T04:49:14;2.20;99.90
20858;DHT22;10589;53.636;10.012;2023-01-23T04:51:40;2.20;99.90
20858;DHT22;10589;53.636;10.012;2023-01-23T04:54:09;2.20;99.90
20858;DHT22;10589;53.636;10.012;2023-01-23T04:56:34;2.20;99.90
20858;DHT22;10589;53.636;10.012;2023-01-23T04:59:00;2.20;99.90
20858;DHT22;10589;53.636;10.012;2023-01-23T05:01:26;2.20;99.90
20858;DHT22;10589;53.636;10.012;2023-01-23T05:03:52;2.20;99.90
20858;DHT22;10589;53.636;10.012;2023-01-23T05:06:17;2.20;99.90
20858;DHT22;10589;53.636;10.012;2023-01-23T05:08:43;2.20;99.90
20858;DHT22;10589;53.636;10.012;2023-01-23T05:11:09;2.20;99.90
20858;DHT22;10589;53.636;10.012;2023-01-23T05:13:35;2.20;99.90
20858;DHT22;10589;53.636;10.012;2023-01-23T05:16:01;2.20;99.90
20858;DHT22;10589;53.636;10.012;2023-01-23T05:18:27;2.20;99.90
20858;DHT22;10589;53.636;10.012;2023-01-23T05:20:53;2.20;99.90
20858;DHT22;10589;53.636;10.012;2023-01-23T05:23:18;2.20;99.90
20858;DHT22;10589;53.636;10.012;2023-01-23T05:25:44;2.20;99.90
20858;DHT22;10589;53.636;10.012;2023-01-23T05:28:10;2.10;99.90
20858;DHT22;10589;53.636;10.012;2023-01-23T05:30:37;2.10;99.90
20858;DHT22;10589;53.636;10.012;2023-01-23T05:33:02;2.20;99.90
20858;DHT22;10589;53.636;10.012;2023-01-23T05:35:28;2.20;99.90
20858;DHT22;10589;53.636;10.012;2023-01-23T05:37:53;2.20;99.90
20858;DHT22;10589;53.636;10.012;2023-01-23T05:40:19;2.20;99.90
20858;DHT22;10589;53.636;10.012;2023-01-23T05:42:46;2.20;99.90
20858;DHT22;10589;53.636;10.012;2023-01-23T05:45:11;2.20;99.90
20858;DHT22;10589;53.636;10.012;2023-01-23T05:47:37;2.20;99.90
20858;DHT22;10589;53.636;10.012;2023-01-23T05:50:04;2.20;99.90
20858;DHT22;10589;53.636;10.012;2023-01-23T05:52:30;2.20;99.90
20858;DHT22;10589;53.636;10.012;2023-01-23T05:54:57;2.20;99.90
20858;DHT22;10589;53.636;10.012;2023-01-23T05:57:22;2.20;99.90
20858;DHT22;10589;53.636;10.012;2023-01-23T05:59:48;2.20;99.90
20858;DHT22;10589;53.636;10.012;2023-01-23T06:02:13;2.20;99.90
20858;DHT22;10589;53.636;10.012;2023-01-23T06:04:39;2.20;99.90
20858;DHT22;10589;53.636;10.012;2023-01-23T06:07:11;2.20;99.90
20858;DHT22;10589;53.636;10.012;2023-01-23T06:09:37;2.20;99.90
20858;DHT22;10589;53.636;10.012;2023-01-23T06:15:16;2.20;99.90
20858;DHT22;10589;53.636;10.012;2023-01-23T06:17:42;2.20;99.90
20858;DHT22;10589;53.636;10.012;2023-01-23T06:20:42;2.20;99.90
20858;DHT22;10589;53.636;10.012;2023-01-23T06:27:21;2.20;99.90
20858;DHT22;10589;53.636;10.012;2023-01-23T06:36:50;2.10;99.90
20858;DHT22;10589;53.636;10.012;2023-01-23T06:40:36;2.20;99.90
20858;DHT22;10589;53.636;10.012;2023-01-23T06:43:50;2.20;99.90
20858;DHT22;10589;53.636;10.012;2023-01-23T06:50:40;2.20;99.90
20858;DHT22;10589;53.636;10.012;2023-01-23T06:54:09;2.10;99.90
20858;DHT22;10589;53.636;10.012;2023-01-23T07:01:12;2.20;99.90
20858;DHT22;10589;53.636;10.012;2023-01-23T07:11:28;2.20;99.90
20858;DHT22;10589;53.636;10.012;2023-01-23T07:14:27;2.20;99.90
20858;DHT22;10589;53.636;10.012;2023-01-23T07:17:23;2.20;99.90
20858;DHT22;10589;53.636;10.012;2023-01-23T07:24:05;2.30;99.90
20858;DHT22;10589;53.636;10.012;2023-01-23T07:26:31;2.20;99.90
20858;DHT22;10589;53.636;10.012;2023-01-23T07:28:58;2.30;99.90
20858;DHT22;10589;53.636;10.012;2023-01-23T07:31:32;2.30;99.90
20858;DHT22;10589;53.636;10.012;2023-01-23T07:33:58;2.30;99.90
20858;DHT22;10589;53.636;10.012;2023-01-23T07:36:23;2.30;99.90
20858;DHT22;10589;53.636;10.012;2023-01-23T07:38:50;2.30;99.90
20858;DHT22;10589;53.636;10.012;2023-01-23T07:47:56;2.30;99.90
20858;DHT22;10589;53.636;10.012;2023-01-23T07:54:24;2.30;99.90
20858;DHT22;10589;53.636;10.012;2023-01-23T08:00:03;2.40;99.90
20858;DHT22;10589;53.636;10.012;2023-01-23T08:02:38;2.40;99.90
20858;DHT22;10589;53.636;10.012;2023-01-23T08:05:14;2.30;99.90
20858;DHT22;10589;53.636;10.012;2023-01-23T08:11:08;2.40;99.90
20858;DHT22;10589;53.636;10.012;2023-01-23T08:14:06;2.40;99.90
20858;DHT22;10589;53.636;10.012;2023-01-23T08:21:11;2.40;99.90
20858;DHT22;10589;53.636;10.012;2023-01-23T08:24:24;2.40;99.90
20858;DHT22;10589;53.636;10.012;2023-01-23T08:27:12;2.50;99.90
20858;DHT22;10589;53.636;10.012;2023-01-23T08:30:03;2.50;99.90
20858;DHT22;10589;53.636;10.012;2023-01-23T08:32:58;2.50;99.90
20858;DHT22;10589;53.636;10.012;2023-01-23T08:35:29;2.50;99.90
20858;DHT22;10589;53.636;10.012;2023-01-23T08:37:58;2.50;99.90
20858;DHT22;10589;53.636;10.012;2023-01-23T08:40:40;2.60;99.90
20858;DHT22;10589;53.636;10.012;2023-01-23T08:43:08;2.60;99.90
20858;DHT22;10589;53.636;10.012;2023-01-23T08:50:47;2.70;99.90
20858;DHT22;10589;53.636;10.012;2023-01-23T08:53:16;2.70;99.90
20858;DHT22;10589;53.636;10.012;2023-01-23T08:55:53;2.70;99.90
20858;DHT22;10589;53.636;10.012;2023-01-23T08:58:24;2.70;99.90
20858;DHT22;10589;53.636;10.012;2023-01-23T09:00:50;2.70;99.90
20858;DHT22;10589;53.636;10.012;2023-01-23T09:03:15;2.70;99.90
20858;DHT22;10589;53.636;10.012;2023-01-23T09:05:42;2.70;99.90
20858;DHT22;10589;53.636;10.012;2023-01-23T09:08:08;2.70;99.90
20858;DHT22;10589;53.636;10.012;2023-01-23T09:10:35;2.70;99.90
20858;DHT22;10589;53.636;10.012;2023-01-23T09:13:01;2.70;99.90
20858;DHT22;10589;53.636;10.012;2023-01-23T09:15:51;2.80;99.90
20858;DHT22;10589;53.636;10.012;2023-01-23T09:18:21;2.80;99.90
20858;DHT22;10589;53.636;10.012;2023-01-23T09:21:16;2.80;99.90
20858;DHT22;10589;53.636;10.012;2023-01-23T09:23:54;2.80;99.90
20858;DHT22;10589;53.636;10.012;2023-01-23T09:26:46;2.80;99.90
20858;DHT22;10589;53.636;10.012;2023-01-23T09:29:48;2.80;99.90
20858;DHT22;10589;53.636;10.012;2023-01-23T09:32:13;2.70;99.90
20858;DHT22;10589;53.636;10.012;2023-01-23T09:35:12;2.70;99.90
20858;DHT22;10589;53.636;10.012;2023-01-23T09:37:37;2.60;99.90
20858;DHT22;10589;53.636;10.012;2023-01-23T09:40:23;2.70;99.90
20858;DHT22;10589;53.636;10.012;2023-01-23T09:42:52;2.70;99.90
20858;DHT22;10589;53.636;10.012;2023-01-23T09:45:27;2.60;99.90
20858;DHT22;10589;53.636;10.012;2023-01-23T09:48:01;2.60;99.90
20858;DHT22;10589;53.636;10.012;2023-01-23T09:50:47;2.70;99.90
20858;DHT22;10589;53.636;10.012;2023-01-23T09:53:19;2.70;99.90
20858;DHT22;10589;53.636;10.012;2023-01-23T09:55:48;2.80;99.90
20858;DHT22;10589;53.636;10.012;2023-01-23T09:58:29;2.80;99.90
20858;DHT22;10589;53.636;10.012;2023-01-23T10:00:56;2.80;99.90
20858;DHT22;10589;53.636;10.012;2023-01-23T10:03:23;2.80;99.90
20858;DHT22;10589;53.636;10.012;2023-01-23T10:14:09;3.10;99.90
20858;DHT22;10589;53.636;10.012;2023-01-23T10:22:08;3.20;99.90
20858;DHT22;10589;53.636;10.012;2023-01-23T10:27:19;3.40;99.90
20858;DHT22;10589;53.636;10.012;2023-01-23T10:35:38;3.50;99.90
20858;DHT22;10589;53.636;10.012;2023-01-23T10:38:25;3.60;99.90
20858;DHT22;10589;53.636;10.012;2023-01-23T10:40:51;3.60;99.90
20858;DHT22;10589;53.636;10.012;2023-01-23T10:43:36;3.60;99.90
20858;DHT22;10589;53.636;10.012;2023-01-23T10:46:11;3.70;99.90
20858;DHT22;10589;53.636;10.012;2023-01-23T10:49:03;3.70;99.90
20858;DHT22;10589;53.636;10.012;2023-01-23T10:52:00;3.70;99.90
20858;DHT22;10589;53.636;10.012;2023-01-23T10:54:45;3.70;99.90
20858;DHT22;10589;53.636;10.012;2023-01-23T11:00:09;3.80;99.90
20858;DHT22;10589;53.636;10.012;2023-01-23T11:02:42;3.90;99.90
20858;DHT22;10589;53.636;10.012;2023-01-23T11:05:33;3.90;99.90
20858;DHT22;10589;53.636;10.012;2023-01-23T11:08:00;3.90;99.90
20858;DHT22;10589;53.636;10.012;2023-01-23T11:10:37;3.90;99.90
20858;DHT22;10589;53.636;10.012;2023-01-23T11:13:46;3.90;99.90
20858;DHT22;10589;53.636;10.012;2023-01-23T11:16:21;3.90;99.90
20858;DHT22;10589;53.636;10.012;2023-01-23T11:21:54;3.80;99.90
20858;DHT22;10589;53.636;10.012;2023-01-23T11:24:43;3.80;99.90
20858;DHT22;10589;53.636;10.012;2023-01-23T11:32:23;3.80;99.90
20858;DHT22;10589;53.636;10.012;2023-01-23T11:35:02;3.80;99.90
20858;DHT22;10589;53.636;10.012;2023-01-23T11:37:35;3.70;99.90
20858;DHT22;10589;53.636;10.012;2023-01-23T11:40:11;3.70;99.90
20858;DHT22;10589;53.636;10.012;2023-01-23T11:42:58;3.60;99.90
20858;DHT22;10589;53.636;10.012;2023-01-23T11:52:44;3.50;99.90
20858;DHT22;10589;53.636;10.012;2023-01-23T12:04:11;3.50;99.90
20858;DHT22;10589;53.636;10.012;2023-01-23T12:07:06;3.60;99.90
20858;DHT22;10589;53.636;10.012;2023-01-23T12:13:15;3.50;99.90
20858;DHT22;10589;53.636;10.012;2023-01-23T12:21:04;3.70;99.90
20858;DHT22;10589;53.636;10.012;2023-01-23T12:26:13;3.80;99.90
20858;DHT22;10589;53.636;10.012;2023-01-23T12:31:51;3.90;99.90
20858;DHT22;10589;53.636;10.012;2023-01-23T12:36:59;3.90;99.90
20858;DHT22;10589;53.636;10.012;2023-01-23T12:45:06;3.90;99.90
20858;DHT22;10589;53.636;10.012;2023-01-23T12:47:52;3.90;99.90
20858;DHT22;10589;53.636;10.012;2023-01-23T12:50:45;3.90;99.90
20858;DHT22;10589;53.636;10.012;2023-01-23T12:53:14;3.90;99.90
20858;DHT22;10589;53.636;10.012;2023-01-23T12:55:50;4.00;99.90
20858;DHT22;10589;53.636;10.012;2023-01-23T12:58:18;4.00;99.90
20858;DHT22;10589;53.636;10.012;2023-01-23T13:09:09;3.90;99.90
20858;DHT22;10589;53.636;10.012;2023-01-23T13:16:58;3.90;99.90
20858;DHT22;10589;53.636;10.012;2023-01-23T13:19:29;3.90;99.90
20858;DHT22;10589;53.636;10.012;2023-01-23T13:24:48;3.80;99.90
20858;DHT22;10589;53.636;10.012;2023-01-23T13:27:43;3.80;99.90
20858;DHT22;10589;53.636;10.012;2023-01-23T13:32:52;3.70;99.90
20858;DHT22;10589;53.636;10.012;2023-01-23T13:43:51;3.70;99.90
20858;DHT22;10589;53.636;10.012;2023-01-23T13:51:47;3.70;99.90
20858;DHT22;10589;53.636;10.012;2023-01-23T13:54:17;3.70;99.90
20858;DHT22;10589;53.636;10.012;2023-01-23T13:57:10;3.60;99.90
20858;DHT22;10589;53.636;10.012;2023-01-23T13:59:41;3.60;99.90
20858;DHT22;10589;53.636;10.012;2023-01-23T14:05:04;3.60;99.90
20858;DHT22;10589;53.636;10.012;2023-01-23T14:07:38;3.60;99.90
20858;DHT22;10589;53.636;10.012;2023-01-23T14:10:23;3.70;99.90
20858;DHT22;10589;53.636;10.012;2023-01-23T14:12:50;3.70;99.90
20858;DHT22;10589;53.636;10.012;2023-01-23T14:15:33;3.80;99.90
20858;DHT22;10589;53.636;10.012;2023-01-23T14:18:31;3.80;99.90
20858;DHT22;10589;53.636;10.012;2023-01-23T14:21:12;3.80;99.90
20858;DHT22;10589;53.636;10.012;2023-01-23T14:23:41;3.70;99.90
20858;DHT22;10589;53.636;10.012;2023-01-23T14:26:12;3.70;99.90
20858;DHT22;10589;53.636;10.012;2023-01-23T14:28:39;3.70;99.90
20858;DHT22;10589;53.636;10.012;2023-01-23T14:31:06;3.70;99.90
20858;DHT22;10589;53.636;10.012;2023-01-23T14:33:43;3.70;99.90
20858;DHT22;10589;53.636;10.012;2023-01-23T14:36:17;3.70;99.90
20858;DHT22;10589;53.636;10.012;2023-01-23T14:38:47;3.70;99.90
20858;DHT22;10589;53.636;10.012;2023-01-23T14:41:15;3.70;99.90
20858;DHT22;10589;53.636;10.012;2023-01-23T14:43:41;3.70;99.90
20858;DHT22;10589;53.636;10.012;2023-01-23T14:46:19;3.70;99.90
20858;DHT22;10589;53.636;10.012;2023-01-23T14:48:50;3.70;99.90
20858;DHT22;10589;53.636;10.012;2023-01-23T14:54:00;3.60;99.90
20858;DHT22;10589;53.636;10.012;2023-01-23T14:56:37;3.60;99.90
20858;DHT22;10589;53.636;10.012;2023-01-23T14:59:06;3.60;99.90
20858;DHT22;10589;53.636;10.012;2023-01-23T15:01:33;3.60;99.90
20858;DHT22;10589;53.636;10.012;2023-01-23T15:04:17;3.60;99.90
20858;DHT22;10589;53.636;10.012;2023-01-23T15:06:53;3.60;99.90
20858;DHT22;10589;53.636;10.012;2023-01-23T15:09:33;3.60;99.90
20858;DHT22;10589;53.636;10.012;2023-01-23T15:12:12;3.60;99.90
20858;DHT22;10589;53.636;10.012;2023-01-23T15:14:40;3.60;99.90
20858;DHT22;10589;53.636;10.012;2023-01-23T15:17:32;3.60;99.90
20858;DHT22;10589;53.636;10.012;2023-01-23T15:19:57;3.60;99.90
20858;DHT22;10589;53.636;10.012;2023-01-23T15:22:28;3.60;99.90
20858;DHT22;10589;53.636;10.012;2023-01-23T15:24:54;3.70;99.90
20858;DHT22;10589;53.636;10.012;2023-01-23T15:27:32;3.60;99.90
20858;DHT22;10589;53.636;10.012;2023-01-23T15:33:02;3.60;99.90
20858;DHT22;10589;53.636;10.012;2023-01-23T15:35:36;3.60;99.90
20858;DHT22;10589;53.636;10.012;2023-01-23T15:38:03;3.50;99.90
20858;DHT22;10589;53.636;10.012;2023-01-23T15:40:33;3.50;99.90
20858;DHT22;10589;53.636;10.012;2023-01-23T15:43:08;3.50;99.90
20858;DHT22;10589;53.636;10.012;2023-01-23T15:45:34;3.50;99.90
20858;DHT22;10589;53.636;10.012;2023-01-23T15:48:00;3.50;99.90
20858;DHT22;10589;53.636;10.012;2023-01-23T15:50:26;3.50;99.90
20858;DHT22;10589;53.636;10.012;2023-01-23T15:52:53;3.50;99.90
20858;DHT22;10589;53.636;10.012;2023-01-23T15:55:21;3.50;99.90
20858;DHT22;10589;53.636;10.012;2023-01-23T15:57:47;3.50;99.90
20858;DHT22;10589;53.636;10.012;2023-01-23T16:00:15;3.50;99.90
20858;DHT22;10589;53.636;10.012;2023-01-23T16:02:41;3.50;99.90
20858;DHT22;10589;53.636;10.012;2023-01-23T16:05:07;3.40;99.90
20858;DHT22;10589;53.636;10.012;2023-01-23T16:07:40;3.50;99.90
20858;DHT22;10589;53.636;10.012;2023-01-23T16:12:44;3.40;99.90
20858;DHT22;10589;53.636;10.012;2023-01-23T16:15:20;3.40;99.90
20858;DHT22;10589;53.636;10.012;2023-01-23T16:17:46;3.40;99.90
20858;DHT22;10589;53.636;10.012;2023-01-23T16:20:20;3.40;99.90
20858;DHT22;10589;53.636;10.012;2023-01-23T16:22:50;3.40;99.90
20858;DHT22;10589;53.636;10.012;2023-01-23T16:25:18;3.40;99.90
20858;DHT22;10589;53.636;10.012;2023-01-23T16:27:44;3.40;99.90
20858;DHT22;10589;53.636;10.012;2023-01-23T16:30:17;3.40;99.90
20858;DHT22;10589;53.636;10.012;2023-01-23T16:32:44;3.40;99.90
20858;DHT22;10589;53.636;10.012;2023-01-23T16:35:11;3.40;99.90
20858;DHT22;10589;53.636;10.012;2023-01-23T16:37:43;3.40;99.90
20858;DHT22;10589;53.636;10.012;2023-01-23T16:40:28;3.40;99.90
20858;DHT22;10589;53.636;10.012;2023-01-23T16:42:58;3.40;99.90
20858;DHT22;10589;53.636;10.012;2023-01-23T16:45:29;3.40;99.90
20858;DHT22;10589;53.636;10.012;2023-01-23T16:47:55;3.40;99.90
20858;DHT22;10589;53.636;10.012;2023-01-23T16:50:30;3.40;99.90
20858;DHT22;10589;53.636;10.012;2023-01-23T16:53:30;3.30;99.90
20858;DHT22;10589;53.636;10.012;2023-01-23T16:55:58;3.40;99.90
20858;DHT22;10589;53.636;10.012;2023-01-23T16:58:27;3.30;99.90
20858;DHT22;10589;53.636;10.012;2023-01-23T17:00:59;3.30;99.90
20858;DHT22;10589;53.636;10.012;2023-01-23T17:03:29;3.30;99.90
20858;DHT22;10589;53.636;10.012;2023-01-23T17:05:56;3.30;99.90
20858;DHT22;10589;53.636;10.012;2023-01-23T17:08:23;3.30;99.90
20858;DHT22;10589;53.636;10.012;2023-01-23T17:10:53;3.30;99.90
20858;DHT22;10589;53.636;10.012;2023-01-23T17:13:20;3.30;99.90
20858;DHT22;10589;53.636;10.012;2023-01-23T17:15:49;3.30;99.90
20858;DHT22;10589;53.636;10.012;2023-01-23T17:20:46;3.30;99.90
20858;DHT22;10589;53.636;10.012;2023-01-23T17:23:13;3.30;99.90
20858;DHT22;10589;53.636;10.012;2023-01-23T17:25:39;3.30;99.90
20858;DHT22;10589;53.636;10.012;2023-01-23T17:28:10;3.30;99.90
20858;DHT22;10589;53.636;10.012;2023-01-23T17:30:36;3.30;99.90
20858;DHT22;10589;53.636;10.012;2023-01-23T17:33:02;3.30;99.90
20858;DHT22;10589;53.636;10.012;2023-01-23T17:35:32;3.30;99.90
20858;DHT22;10589;53.636;10.012;2023-01-23T17:37:59;3.40;99.90
20858;DHT22;10589;53.636;10.012;2023-01-23T17:40:25;3.30;99.90
20858;DHT22;10589;53.636;10.012;2023-01-23T17:42:50;3.30;99.90
20858;DHT22;10589;53.636;10.012;2023-01-23T17:45:20;3.30;99.90
20858;DHT22;10589;53.636;10.012;2023-01-23T17:47:53;3.30;99.90
20858;DHT22;10589;53.636;10.012;2023-01-23T17:50:22;3.30;99.90
20858;DHT22;10589;53.636;10.012;2023-01-23T17:52:49;3.30;99.90
20858;DHT22;10589;53.636;10.012;2023-01-23T17:55:24;3.30;99.90
20858;DHT22;10589;53.636;10.012;2023-01-23T17:57:53;3.30;99.90
20858;DHT22;10589;53.636;10.012;2023-01-23T18:00:19;3.30;99.90
20858;DHT22;10589;53.636;10.012;2023-01-23T18:02:50;3.20;99.90
20858;DHT22;10589;53.636;10.012;2023-01-23T18:05:16;3.30;99.90
20858;DHT22;10589;53.636;10.012;2023-01-23T18:07:42;3.20;99.90
20858;DHT22;10589;53.636;10.012;2023-01-23T18:10:09;3.20;99.90
20858;DHT22;10589;53.636;10.012;2023-01-23T18:15:29;3.30;99.90
20858;DHT22;10589;53.636;10.012;2023-01-23T18:20:33;3.20;99.90
20858;DHT22;10589;53.636;10.012;2023-01-23T18:22:59;3.20;99.90
20858;DHT22;10589;53.636;10.012;2023-01-23T18:25:25;3.20;99.90
20858;DHT22;10589;53.636;10.012;2023-01-23T18:27:55;3.20;99.90
20858;DHT22;10589;53.636;10.012;2023-01-23T18:33:25;3.20;99.90
20858;DHT22;10589;53.636;10.012;2023-01-23T18:36:16;3.20;99.90
20858;DHT22;10589;53.636;10.012;2023-01-23T18:41:28;3.20;99.90
20858;DHT22;10589;53.636;10.012;2023-01-23T18:44:02;3.20;99.90
20858;DHT22;10589;53.636;10.012;2023-01-23T18:46:30;3.20;99.90
20858;DHT22;10589;53.636;10.012;2023-01-23T18:48:56;3.20;99.90
20858;DHT22;10589;53.636;10.012;2023-01-23T18:59:52;3.20;99.90
20858;DHT22;10589;53.636;10.012;2023-01-23T19:07:41;3.20;99.90
20858;DHT22;10589;53.636;10.012;2023-01-23T19:10:28;3.20;99.90
20858;DHT22;10589;53.636;10.012;2023-01-23T19:13:16;3.20;99.90
20858;DHT22;10589;53.636;10.012;2023-01-23T19:16:43;3.20;99.90
20858;DHT22;10589;53.636;10.012;2023-01-23T19:18:51;3.20;99.90
20858;DHT22;10589;53.636;10.012;2023-01-23T19:21:19;3.20;99.90
20858;DHT22;10589;53.636;10.012;2023-01-23T19:26:31;3.20;99.90
20858;DHT22;10589;53.636;10.012;2023-01-23T19:28:58;3.20;99.90
20858;DHT22;10589;53.636;10.012;2023-01-23T19:31:26;3.20;99.90
20858;DHT22;10589;53.636;10.012;2023-01-23T19:33:53;3.20;99.90
20858;DHT22;10589;53.636;10.012;2023-01-23T19:36:20;3.20;99.90
20858;DHT22;10589;53.636;10.012;2023-01-23T19:38:46;3.10;99.90
20858;DHT22;10589;53.636;10.012;2023-01-23T19:41:19;3.10;99.90
20858;DHT22;10589;53.636;10.012;2023-01-23T19:43:53;3.10;99.90
20858;DHT22;10589;53.636;10.012;2023-01-23T19:46:20;3.10;99.90
20858;DHT22;10589;53.636;10.012;2023-01-23T19:48:48;3.10;99.90
20858;DHT22;10589;53.636;10.012;2023-01-23T19:51:17;3.10;99.90
20858;DHT22;10589;53.636;10.012;2023-01-23T19:53:43;3.10;99.90
20858;DHT22;10589;53.636;10.012;2023-01-23T19:56:15;3.10;99.90
20858;DHT22;10589;53.636;10.012;2023-01-23T19:58:42;3.10;99.90
20858;DHT22;10589;53.636;10.012;2023-01-23T20:01:19;3.10;99.90
20858;DHT22;10589;53.636;10.012;2023-01-23T20:03:45;3.10;99.90
20858;DHT22;10589;53.636;10.012;2023-01-23T20:06:11;3.20;99.90
20858;DHT22;10589;53.636;10.012;2023-01-23T20:08:36;3.10;99.90
20858;DHT22;10589;53.636;10.012;2023-01-23T20:11:02;3.10;99.90
20858;DHT22;10589;53.636;10.012;2023-01-23T20:13:27;3.10;99.90
20858;DHT22;10589;53.636;10.012;2023-01-23T20:15:53;3.10;99.90
20858;DHT22;10589;53.636;10.012;2023-01-23T20:18:19;3.10;99.90
20858;DHT22;10589;53.636;10.012;2023-01-23T20:20:47;3.10;99.90
20858;DHT22;10589;53.636;10.012;2023-01-23T20:23:13;3.10;99.90
20858;DHT22;10589;53.636;10.012;2023-01-23T20:25:39;3.10;99.90
20858;DHT22;10589;53.636;10.012;2023-01-23T20:28:05;3.10;99.90
20858;DHT22;10589;53.636;10.012;2023-01-23T20:30:30;3.10;99.90
20858;DHT22;10589;53.636;10.012;2023-01-23T20:32:56;3.10;99.90
20858;DHT22;10589;53.636;10.012;2023-01-23T20:35:23;3.10;99.90
20858;DHT22;10589;53.636;10.012;2023-01-23T20:37:48;3.10;99.90
20858;DHT22;10589;53.636;10.012;2023-01-23T20:40:14;3.10;99.90
20858;DHT22;10589;53.636;10.012;2023-01-23T20:42:40;3.10;99.90
20858;DHT22;10589;53.636;10.012;2023-01-23T20:45:06;3.10;99.90
20858;DHT22;10589;53.636;10.012;2023-01-23T20:47:36;3.10;99.90
20858;DHT22;10589;53.636;10.012;2023-01-23T20:50:02;3.10;99.90
20858;DHT22;10589;53.636;10.012;2023-01-23T20:52:28;3.10;99.90
20858;DHT22;10589;53.636;10.012;2023-01-23T20:55:13;3.10;99.90
20858;DHT22;10589;53.636;10.012;2023-01-23T20:57:38;3.10;99.90
20858;DHT22;10589;53.636;10.012;2023-01-23T21:00:27;3.10;99.90
20858;DHT22;10589;53.636;10.012;2023-01-23T21:02:53;3.00;99.90
20858;DHT22;10589;53.636;10.012;2023-01-23T21:05:18;3.10;99.90
20858;DHT22;10589;53.636;10.012;2023-01-23T21:07:44;3.10;99.90
20858;DHT22;10589;53.636;10.012;2023-01-23T21:10:10;3.10;99.90
20858;DHT22;10589;53.636;10.012;2023-01-23T21:12:35;3.10;99.90
20858;DHT22;10589;53.636;10.012;2023-01-23T21:15:01;3.00;99.90
20858;DHT22;10589;53.636;10.012;2023-01-23T21:17:27;3.00;99.90
20858;DHT22;10589;53.636;10.012;2023-01-23T21:19:53;3.10;99.90
20858;DHT22;10589;53.636;10.012;2023-01-23T21:22:18;3.10;99.90
20858;DHT22;10589;53.636;10.012;2023-01-23T21:24:45;3.00;99.90
20858;DHT22;10589;53.636;10.012;2023-01-23T21:27:11;3.10;99.90
20858;DHT22;10589;53.636;10.012;2023-01-23T21:29:38;3.10;99.90
20858;DHT22;10589;53.636;10.012;2023-01-23T21:32:04;3.10;99.90
20858;DHT22;10589;53.636;10.012;2023-01-23T21:34:29;3.10;99.90
20858;DHT22;10589;53.636;10.012;2023-01-23T21:36:55;3.10;99.90
20858;DHT22;10589;53.636;10.012;2023-01-23T21:39:21;3.10;99.90
20858;DHT22;10589;53.636;10.012;2023-01-23T21:41:46;3.10;99.90
20858;DHT22;10589;53.636;10.012;2023-01-23T21:44:12;3.10;99.90
20858;DHT22;10589;53.636;10.012;2023-01-23T21:46:39;3.10;99.90
20858;DHT22;10589;53.636;10.012;2023-01-23T21:49:04;3.10;99.90
20858;DHT22;10589;53.636;10.012;2023-01-23T21:51:30;3.00;99.90
20858;DHT22;10589;53.636;10.012;2023-01-23T21:54:02;3.00;99.90
20858;DHT22;10589;53.636;10.012;2023-01-23T21:56:28;3.00;99.90
20858;DHT22;10589;53.636;10.012;2023-01-23T21:58:53;3.00;99.90
20858;DHT22;10589;53.636;10.012;2023-01-23T22:01:21;3.00;99.90
20858;DHT22;10589;53.636;10.012;2023-01-23T22:06:25;3.00;99.90
20858;DHT22;10589;53.636;10.012;2023-01-23T22:08:50;3.00;99.90
20858;DHT22;10589;53.636;10.012;2023-01-23T22:11:16;3.00;99.90
20858;DHT22;10589;53.636;10.012;2023-01-23T22:13:42;3.00;99.90
20858;DHT22;10589;53.636;10.012;2023-01-23T22:16:07;3.00;99.90
20858;DHT22;10589;53.636;10.012;2023-01-23T22:18:33;3.00;99.90
20858;DHT22;10589;53.636;10.012;2023-01-23T22:21:01;3.00;99.90
20858;DHT22;10589;53.636;10.012;2023-01-23T22:23:27;3.00;99.90
20858;DHT22;10589;53.636;10.012;2023-01-23T22:26:02;3.00;99.90
20858;DHT22;10589;53.636;10.012;2023-01-23T22:28:28;3.00;99.90
20858;DHT22;10589;53.636;10.012;2023-01-23T22:30:54;3.00;99.90
20858;DHT22;10589;53.636;10.012;2023-01-23T22:33:20;3.00;99.90
20858;DHT22;10589;53.636;10.012;2023-01-23T22:35:46;3.00;99.90
20858;DHT22;10589;53.636;10.012;2023-01-23T22:38:13;3.00;99.90
20858;DHT22;10589;53.636;10.012;2023-01-23T22:40:38;3.00;99.90
20858;DHT22;10589;53.636;10.012;2023-01-23T22:43:05;3.00;99.90
20858;DHT22;10589;53.636;10.012;2023-01-23T22:45:31;3.00;99.90
20858;DHT22;10589;53.636;10.012;2023-01-23T22:47:57;3.00;99.90
20858;DHT22;10589;53.636;10.012;2023-01-23T22:50:22;3.00;99.90
20858;DHT22;10589;53.636;10.012;2023-01-23T22:52:48;3.00;99.90
20858;DHT22;10589;53.636;10.012;2023-01-23T22:55:14;3.00;99.90
20858;DHT22;10589;53.636;10.012;2023-01-23T22:57:40;3.00;99.90
20858;DHT22;10589;53.636;10.012;2023-01-23T23:00:13;2.90;99.90
20858;DHT22;10589;53.636;10.012;2023-01-23T23:02:39;2.90;99.90
20858;DHT22;10589;53.636;10.012;2023-01-23T23:05:05;3.00;99.90
20858;DHT22;10589;53.636;10.012;2023-01-23T23:07:32;3.00;99.90
20858;DHT22;10589;53.636;10.012;2023-01-23T23:09:58;3.00;99.90
20858;DHT22;10589;53.636;10.012;2023-01-23T23:12:26;3.00;99.90
20858;DHT22;10589;53.636;10.012;2023-01-23T23:14:52;3.00;99.90
20858;DHT22;10589;53.636;10.012;2023-01-23T23:17:18;3.00;99.90
20858;DHT22;10589;53.636;10.012;2023-01-23T23:19:43;3.00;99.90
20858;DHT22;10589;53.636;10.012;2023-01-23T23:22:09;3.00;99.90
20858;DHT22;10589;53.636;10.012;2023-01-23T23:24:34;3.00;99.90
20858;DHT22;10589;53.636;10.012;2023-01-23T23:27:00;3.00;99.90
20858;DHT22;10589;53.636;10.012;2023-01-23T23:29:26;2.90;99.90
